Sneeuw/IJzel/Bevriezing van: 17-12-2017 06:59 tot: 09:59 waarschuwing voor: Sneeuw/IJzel/Bevriezing niveau: Geel info button
nederlands:
SNEEUW :Vanochtend verwachten we nog enkele sneeuwbuien in de Ardennen. De sneeuwlaag dikt daar nog wat aan. Elders vallen er een paar buien van smeltende sneeuw of sneeuw.RIJM- EN/OF IJSPLEKKENVanochtend zijn de temperaturen ten zuiden van Samber en Maas maar lokaal ook in het centrale deel van het land negatief. Er is gevaar voor plaatselijke rijm- en ijsplekken.

français:
NEIGE :Ce matin, on prévoit encore l'une ou l'autre averse de neige en Ardenne, qui conduiront à une petite accumulation supplémentaire par endroits. Ailleurs, quelques averses de neige (fondante) pourront également se produire en plaine. PLAQUES DE GLACE/GIVRE : Ce matin, les températures sont négatives au suddu sillon Sambre et Meuse, mais localement aussi dans le centre du pays. Il faudra donc être vigilant quant à la formation de plaques de glace/givre par endroits. 



Onweer radar Meer informatie blitzortung!


waarschuwing voor winterse neerslag Meer informatie rain snow radar


Bezoek onze andere website:

Template documentation
and downloads

And another site

EUWEATHER.EU


U vindt ons ook hier:

Het Weer Aktueel

UK Metoffice

European Weather Network

WeatherCloud

Weather Underground

AWEKAS

WeatherlinkIP

HAMweather, WeatherForYou, PWS Weather

Wetterpage 24

Wetter.com



METAR rapporten vliegvelden

   
EBAW - Antwerp
Gewijzigd: 17-12-2017 06:50
Gedeeltelijk bewolkt  
Gedeeltelijk bewolkt  
   Wind: varieert 3.7 km/h
Wind: varieert 3.7 km/h
Temperatuur: 2°C
Dauwpunt: 0°C
Vochtigheid: 87%
Barometer: 1022 hPa
Bewolking: Gedeeltelijk bewolkt
Zicht: 6 km
Bewolking: Licht bewolkt 3000 ft,
Gedeeltelijk bewolkt 4200 ft
EBAW 170550Z VRB02KT 6000 FEW030 SCT042 02/00 Q1022 TEMPO 4000 BR
EBLG - Liège
Gewijzigd: 17-12-2017 06:50
Buien, Regen, Sneeuw, Grotendeels bewolkt  
Buien, Regen, Sneeuw, Grotendeels bewolkt  
   Wind: WZW 13 km/h
Wind: WZW 13 km/h
Temperatuur: 0°C
Voelt als: -4°C
Dauwpunt: -1°C
Vochtigheid: 93%
Barometer: 1021 hPa
Bewolking: Grotendeels bewolkt
Zicht: 6 km
Bewolking: Grotendeels bewolkt 1000 ft
EBLG 170550Z 24007KT 6000 -SHRASN BKN010 00/M01 Q1021 NOSIG
EBCV - Mons/Bergen
Gewijzigd: 17-12-2017 07:03
Nevel, Grotendeels bewolkt  
Nevel, Grotendeels bewolkt  
   Wind: ZW 7.4 km/h
Wind: ZW 7.4 km/h
Temperatuur: 0°C
Voelt als: -3°C
Dauwpunt: 0°C
Vochtigheid: 100%
Barometer: 1023 hPa
Bewolking: Grotendeels bewolkt
Zicht: 4 km
Bewolking: Licht bewolkt 1500 ft,
Gedeeltelijk bewolkt 3700 ft,
Grotendeels bewolkt 4700 ft
EBCV 170603Z AUTO 22004KT 3600 BR FEW015/// SCT037/// BKN047/// 00/00 Q1023 YLO
EHBK - Maastricht
Gewijzigd: 17-12-2017 06:55
Bewolking  
Bewolking  
   Wind: ZW 13 km/h
Wind: ZW 13 km/h
Temperatuur: 1°C
Voelt als: -3°C
Dauwpunt: 0°C
Vochtigheid: 93%
Barometer: 1021 hPa
Bewolking: Bewolking
Zicht: 7 km
Bewolking: Licht bewolkt 400 ft,
Grotendeels bewolkt 500 ft,
Bewolking 600 ft
EHBK 170555Z AUTO 23007KT 7000 FEW004 BKN005 OVC006 01/00 Q1021 TEMPO BKN002
ELLX - Luxemburg
Gewijzigd: 17-12-2017 06:50
Grotendeels bewolkt  
Grotendeels bewolkt  
   Wind: Westen 13 km/h
Wind: Westen 13 km/h
Temperatuur: -1°C
Voelt als: -5°C
Dauwpunt: -2°C
Vochtigheid: 93%
Barometer: 1021 hPa
Bewolking: Grotendeels bewolkt
Zicht: meer dan 10 km
Bewolking: Licht bewolkt 600 ft,
Grotendeels bewolkt 2600 ft
ELLX 170550Z 27007KT 9999 FEW006 BKN026 M01/M02 Q1021 NOSIG
EBOS - Oostende
Gewijzigd: 17-12-2017 06:50
Gedeeltelijk bewolkt  
Gedeeltelijk bewolkt  
   Wind: NW 16.7 km/h
Wind: NW 16.7 km/h
Temperatuur: 5°C
Voelt als: 2°C
Dauwpunt: 2°C
Vochtigheid: 81%
Barometer: 1023 hPa
Bewolking: Gedeeltelijk bewolkt
Zicht: meer dan 10 km
Bewolking: Gedeeltelijk bewolkt 1700 ft,
Gedeeltelijk bewolkt 3200 ft
EBOS 170550Z 31009KT 9999 SCT017 SCT032 05/02 Q1023 NOSIG

Script ontwikkeld door  Saratoga-weather.org Aangepast voor de template door  Weerstation Leuven

Apparatuur in gebruik:

Weerstation
Davis VP2

Weerprogramma
Meteobridge

Weercomputer
Asus WL -330N3G

Webleverancier
Onecom

Davis VP2

Meteobridge

Asus WL -330N3G

Onecom